createdAt,value
2017-09-20T00:01:46.515Z,82.40
2017-09-20T00:04:13.354Z,82.40
2017-09-20T00:06:40.180Z,82.80
2017-09-20T00:09:07.017Z,84.10
2017-09-20T00:11:34.624Z,83.40
2017-09-20T00:14:02.255Z,84.60
2017-09-20T00:16:29.176Z,84.60
2017-09-20T00:18:55.984Z,86.80
2017-09-20T00:21:22.906Z,87.20
2017-09-20T00:23:49.756Z,86.00
2017-09-20T00:26:16.632Z,86.20
2017-09-20T00:28:43.510Z,85.30
2017-09-20T00:31:10.382Z,87.40
2017-09-20T00:33:37.280Z,86.90
2017-09-20T00:36:04.909Z,83.80
2017-09-20T00:38:31.802Z,83.80
2017-09-20T00:40:58.683Z,83.80
2017-09-20T00:43:26.317Z,84.10
2017-09-20T00:45:53.930Z,84.10
2017-09-20T00:48:20.788Z,84.30
2017-09-20T00:50:48.345Z,83.20
2017-09-20T00:53:15.251Z,83.20
2017-09-20T00:55:42.213Z,84.60
2017-09-20T00:58:09.241Z,85.20
2017-09-20T01:00:36.174Z,85.00
2017-09-20T01:03:03.190Z,85.70
2017-09-20T01:05:30.991Z,87.70
2017-09-20T01:07:58.218Z,87.70
2017-09-20T01:10:25.168Z,87.70
2017-09-20T01:12:52.363Z,88.40
2017-09-20T01:15:19.694Z,88.50
2017-09-20T01:17:46.796Z,86.20
2017-09-20T01:20:31.976Z,84.60
2017-09-20T01:23:17.120Z,84.80
2017-09-20T01:25:45.175Z,85.60
2017-09-20T01:28:12.785Z,85.90
2017-09-20T01:30:39.852Z,86.90
2017-09-20T01:33:07.051Z,87.80
2017-09-20T01:35:33.924Z,88.40
2017-09-20T01:38:00.940Z,87.10
2017-09-20T01:40:27.742Z,84.40
2017-09-20T01:42:54.722Z,83.60
2017-09-20T01:45:22.275Z,86.20
2017-09-20T01:47:49.059Z,86.20
2017-09-20T01:50:16.630Z,86.70
2017-09-20T01:52:43.491Z,86.70
2017-09-20T01:55:10.304Z,83.90
2017-09-20T01:57:37.178Z,83.60
2017-09-20T02:00:04.099Z,83.20
2017-09-20T02:02:30.950Z,85.80
2017-09-20T02:04:58.563Z,88.30
2017-09-20T02:07:25.408Z,88.20
2017-09-20T02:09:52.275Z,88.60
2017-09-20T02:12:19.092Z,87.60
2017-09-20T02:14:45.983Z,85.00
2017-09-20T02:17:13.565Z,83.70
2017-09-20T02:19:41.520Z,85.00
2017-09-20T02:22:08.363Z,85.90
2017-09-20T02:24:35.227Z,87.00
2017-09-20T02:27:02.083Z,88.20
2017-09-20T02:29:28.976Z,88.30
2017-09-20T02:31:55.828Z,86.50
2017-09-20T02:34:22.700Z,87.00
2017-09-20T02:36:50.328Z,88.30
2017-09-20T02:39:17.262Z,88.30
2017-09-20T02:41:44.857Z,88.30
2017-09-20T02:44:11.718Z,88.30
2017-09-20T02:46:38.564Z,87.70
2017-09-20T02:49:05.456Z,85.20
2017-09-20T02:51:32.402Z,84.70
2017-09-20T02:53:59.281Z,86.70
2017-09-20T02:56:26.151Z,88.20
2017-09-20T02:58:53.020Z,87.80
2017-09-20T03:01:19.885Z,85.50
2017-09-20T03:03:46.767Z,86.20
2017-09-20T03:06:13.599Z,86.10
2017-09-20T03:08:40.445Z,88.10
2017-09-20T03:11:07.309Z,87.90
2017-09-20T03:13:34.198Z,85.90
2017-09-20T03:16:01.036Z,85.00
2017-09-20T03:18:27.917Z,84.40
2017-09-20T03:20:54.769Z,84.10
2017-09-20T03:23:21.588Z,84.30
2017-09-20T03:25:48.417Z,85.50
2017-09-20T03:28:15.262Z,86.30
2017-09-20T03:30:42.111Z,86.40
2017-09-20T03:33:08.974Z,88.90
2017-09-20T03:35:35.828Z,88.70
2017-09-20T03:38:02.662Z,86.80
2017-09-20T03:40:29.502Z,86.70
2017-09-20T03:42:57.071Z,86.00
2017-09-20T03:45:24.722Z,85.20
2017-09-20T03:47:51.558Z,85.20
2017-09-20T03:50:18.392Z,85.20
2017-09-20T03:52:45.229Z,85.80
2017-09-20T03:55:12.064Z,86.50
2017-09-20T03:57:38.915Z,86.10
2017-09-20T04:00:05.782Z,85.40
2017-09-20T04:02:32.623Z,84.60
2017-09-20T04:04:59.462Z,84.50
2017-09-20T04:07:26.308Z,85.00
2017-09-20T04:09:53.898Z,84.80
2017-09-20T04:12:21.454Z,84.80
2017-09-20T04:14:48.299Z,84.80
2017-09-20T04:17:15.228Z,85.50
2017-09-20T04:19:42.048Z,84.70
2017-09-20T04:22:09.704Z,85.50
2017-09-20T04:24:36.566Z,85.40
2017-09-20T04:27:03.444Z,86.20
2017-09-20T04:29:31.039Z,85.40
2017-09-20T04:31:58.672Z,85.00
2017-09-20T04:34:25.533Z,85.00
2017-09-20T04:36:52.355Z,84.80
2017-09-20T04:39:19.189Z,84.50
2017-09-20T04:41:46.785Z,86.50
2017-09-20T04:44:13.620Z,86.50
2017-09-20T04:46:41.222Z,85.40
2017-09-20T04:49:08.061Z,85.40
2017-09-20T04:51:34.911Z,84.90
2017-09-20T04:54:01.795Z,84.70
2017-09-20T04:56:29.379Z,85.10
2017-09-20T04:58:56.947Z,85.40
2017-09-20T05:01:24.512Z,85.50
2017-09-20T05:03:51.423Z,85.50
2017-09-20T05:06:18.283Z,86.70
2017-09-20T05:08:45.179Z,86.30
2017-09-20T05:11:12.019Z,86.10
2017-09-20T05:13:38.852Z,85.80
2017-09-20T05:16:05.728Z,85.60
2017-09-20T05:18:32.563Z,85.00
2017-09-20T05:20:59.435Z,85.10
2017-09-20T05:23:26.291Z,85.00
2017-09-20T05:25:53.158Z,85.10
2017-09-20T05:28:20.013Z,86.10
2017-09-20T05:30:46.936Z,87.10
2017-09-20T05:33:13.861Z,88.60
2017-09-20T05:35:40.696Z,89.00
2017-09-20T05:38:08.315Z,87.20
2017-09-20T05:40:35.173Z,87.20
2017-09-20T05:43:02.076Z,87.80
2017-09-20T05:45:28.974Z,86.70
2017-09-20T05:47:55.866Z,88.60
2017-09-20T05:50:22.739Z,86.60
2017-09-20T05:52:49.581Z,86.30
2017-09-20T05:55:16.421Z,86.10
2017-09-20T05:57:43.283Z,86.30
2017-09-20T06:00:10.165Z,86.20
2017-09-20T06:02:37.003Z,86.20
2017-09-20T06:05:03.863Z,86.20
2017-09-20T06:07:30.773Z,88.20
2017-09-20T06:09:57.605Z,88.50
2017-09-20T06:12:24.507Z,87.40
2017-09-20T06:14:51.362Z,87.10
2017-09-20T06:17:19.465Z,86.70
2017-09-20T06:19:46.307Z,87.40
2017-09-20T06:22:13.177Z,86.40
2017-09-20T06:24:40.018Z,86.30
2017-09-20T06:27:06.842Z,86.20
2017-09-20T06:29:33.690Z,86.30
2017-09-20T06:32:01.304Z,88.20
2017-09-20T06:34:28.138Z,88.20
2017-09-20T06:36:55.713Z,86.90
2017-09-20T06:39:23.341Z,86.80
2017-09-20T06:41:50.181Z,86.80
2017-09-20T06:44:17.030Z,87.30
2017-09-20T06:46:43.839Z,87.10
2017-09-20T06:49:10.714Z,87.40
2017-09-20T06:51:37.566Z,87.90
2017-09-20T06:54:04.389Z,87.40
2017-09-20T06:56:31.245Z,88.30
2017-09-20T06:58:58.092Z,87.80
2017-09-20T07:01:25.003Z,88.00
2017-09-20T07:03:51.873Z,87.80
2017-09-20T07:06:18.707Z,87.30
2017-09-20T07:08:45.562Z,86.80
2017-09-20T07:11:12.461Z,88.00
2017-09-20T07:13:39.276Z,89.60
2017-09-20T07:16:06.183Z,88.90
2017-09-20T07:18:33.083Z,88.30
2017-09-20T07:20:59.947Z,87.60
2017-09-20T07:23:26.784Z,89.30
2017-09-20T07:25:54.387Z,87.00
2017-09-20T07:28:21.206Z,87.00
2017-09-20T07:30:48.067Z,86.80
2017-09-20T07:33:14.888Z,86.90
2017-09-20T07:35:41.715Z,86.80
2017-09-20T07:38:09.324Z,88.00
2017-09-20T07:40:36.168Z,87.90
2017-09-20T07:43:03.004Z,88.90
2017-09-20T07:45:30.573Z,88.00
2017-09-20T07:47:57.450Z,88.00
2017-09-20T07:50:25.012Z,87.10
2017-09-20T07:52:51.839Z,87.00
2017-09-20T07:55:18.662Z,88.90
2017-09-20T07:57:46.239Z,87.90
2017-09-20T08:00:13.826Z,87.70
2017-09-20T08:02:40.676Z,87.70
2017-09-20T08:05:07.527Z,87.70
2017-09-20T08:07:35.109Z,89.20
2017-09-20T08:10:02.718Z,88.90
2017-09-20T08:12:29.600Z,88.90
2017-09-20T08:14:56.516Z,87.40
2017-09-20T08:17:24.638Z,88.60
2017-09-20T08:19:51.530Z,88.00
2017-09-20T08:22:18.426Z,88.80
2017-09-20T08:24:46.015Z,87.50
2017-09-20T08:27:12.877Z,87.50
2017-09-20T08:29:39.715Z,88.00
2017-09-20T08:32:07.308Z,87.90
2017-09-20T08:34:34.960Z,87.70
2017-09-20T08:37:01.842Z,87.70
2017-09-20T08:39:29.498Z,88.30
2017-09-20T08:41:56.363Z,88.40
2017-09-20T08:44:23.227Z,87.90
2017-09-20T08:46:50.065Z,87.60
2017-09-20T08:49:16.901Z,87.80
2017-09-20T08:51:43.744Z,88.00
2017-09-20T08:54:10.597Z,87.10
2017-09-20T08:56:38.179Z,87.30
2017-09-20T08:59:05.064Z,87.30
2017-09-20T09:01:31.941Z,87.20
2017-09-20T09:03:58.798Z,87.20
2017-09-20T09:06:25.645Z,87.60
2017-09-20T09:08:52.465Z,86.90
2017-09-20T09:11:20.083Z,86.90
2017-09-20T09:13:46.972Z,86.90
2017-09-20T09:16:13.848Z,86.50
2017-09-20T09:18:40.707Z,87.20
2017-09-20T09:21:07.555Z,86.80
2017-09-20T09:23:34.376Z,86.20
2017-09-20T09:26:01.254Z,86.00
2017-09-20T09:28:28.103Z,87.10
2017-09-20T09:30:54.950Z,86.50
2017-09-20T09:33:22.543Z,86.70
2017-09-20T09:35:49.433Z,86.60
2017-09-20T09:38:16.286Z,86.30
2017-09-20T09:40:43.105Z,86.30
2017-09-20T09:43:10.676Z,86.30
2017-09-20T09:45:38.353Z,86.00
2017-09-20T09:48:05.910Z,86.60
2017-09-20T09:50:32.743Z,86.50
2017-09-20T09:52:59.595Z,86.60
2017-09-20T09:55:26.441Z,86.30
2017-09-20T09:57:53.328Z,86.40
2017-09-20T10:00:20.156Z,86.40
2017-09-20T10:02:47.808Z,85.50
2017-09-20T10:05:14.645Z,85.50
2017-09-20T10:07:41.529Z,85.80
2017-09-20T10:10:08.419Z,85.30
2017-09-20T10:12:36.009Z,84.60
2017-09-20T10:15:02.883Z,84.50
2017-09-20T10:17:29.794Z,84.00
2017-09-20T10:19:56.658Z,84.30
2017-09-20T10:22:23.538Z,84.30
2017-09-20T10:24:51.122Z,83.60
2017-09-20T10:27:18.742Z,84.00
2017-09-20T10:29:45.625Z,84.00
2017-09-20T10:32:12.459Z,83.10
2017-09-20T10:34:39.293Z,82.70
2017-09-20T10:37:06.143Z,83.30
2017-09-20T10:39:33.722Z,83.30
2017-09-20T10:42:01.305Z,82.40
2017-09-20T10:44:28.900Z,82.10
2017-09-20T10:46:55.750Z,82.00
2017-09-20T10:49:22.571Z,81.40
2017-09-20T10:51:50.024Z,80.60
2017-09-20T10:54:16.859Z,81.40
2017-09-20T10:56:45.094Z,81.40
2017-09-20T10:59:11.953Z,79.80
2017-09-20T11:01:38.794Z,80.10
2017-09-20T11:04:05.662Z,78.60
2017-09-20T11:06:32.479Z,78.30
2017-09-20T11:08:59.403Z,76.50
2017-09-20T11:11:26.245Z,78.20
2017-09-20T11:13:53.164Z,76.50
2017-09-20T11:16:20.722Z,75.60
2017-09-20T11:18:48.294Z,72.70
2017-09-20T11:21:15.107Z,71.90
2017-09-20T11:23:41.928Z,75.20
2017-09-20T11:26:09.520Z,74.80
2017-09-20T11:28:36.352Z,74.70
2017-09-20T11:31:03.199Z,74.20
2017-09-20T11:33:30.058Z,74.00
2017-09-20T11:35:56.951Z,75.40
2017-09-20T11:38:24.522Z,72.90
2017-09-20T11:40:51.348Z,73.00
2017-09-20T11:43:18.217Z,72.50
2017-09-20T11:45:45.076Z,70.50
2017-09-20T11:48:12.037Z,71.80
2017-09-20T11:50:38.878Z,72.50
2017-09-20T11:53:05.828Z,72.30
2017-09-20T11:55:32.678Z,71.80
2017-09-20T11:57:59.555Z,71.20
2017-09-20T12:00:27.156Z,69.70
2017-09-20T12:02:53.999Z,69.80
2017-09-20T12:05:20.861Z,69.80
2017-09-20T12:07:47.720Z,68.20
2017-09-20T12:10:14.540Z,68.60
2017-09-20T12:12:41.384Z,69.30
2017-09-20T12:15:08.201Z,67.60
2017-09-20T12:17:35.792Z,64.90
2017-09-20T12:20:03.379Z,64.60
2017-09-20T12:22:30.249Z,64.60
2017-09-20T12:24:57.067Z,65.60
2017-09-20T12:27:23.892Z,65.80
2017-09-20T12:29:50.718Z,66.00
2017-09-20T12:32:17.552Z,65.20
2017-09-20T12:34:44.384Z,66.00
2017-09-20T12:37:11.242Z,63.70
2017-09-20T12:39:38.076Z,63.50
2017-09-20T12:42:04.906Z,63.30
2017-09-20T12:44:31.792Z,63.60
2017-09-20T12:47:00.325Z,62.10
2017-09-20T12:49:27.249Z,61.00
2017-09-20T12:51:58.716Z,61.20
2017-09-20T12:54:25.590Z,60.20
2017-09-20T12:56:52.432Z,60.20
2017-09-20T12:59:19.294Z,59.30
2017-09-20T13:01:46.190Z,58.50
2017-09-20T13:04:13.011Z,57.30
2017-09-20T13:06:39.882Z,58.10
2017-09-20T13:09:06.761Z,59.10
2017-09-20T13:11:33.628Z,58.10
2017-09-20T13:14:00.489Z,58.00
2017-09-20T13:16:27.343Z,56.30
2017-09-20T13:18:54.178Z,57.30
2017-09-20T13:21:21.065Z,56.40
2017-09-20T13:23:47.938Z,58.60
2017-09-20T13:26:14.844Z,54.90
2017-09-20T13:28:41.694Z,53.70
2017-09-20T13:31:09.248Z,56.00
2017-09-20T13:33:36.124Z,56.00
2017-09-20T13:36:03.005Z,56.20
2017-09-20T13:38:29.871Z,54.10
2017-09-20T13:40:56.718Z,54.40
2017-09-20T13:43:24.315Z,53.40
2017-09-20T13:45:51.196Z,53.30
2017-09-20T13:48:18.018Z,54.10
2017-09-20T13:50:45.616Z,54.90
2017-09-20T13:53:12.498Z,54.80
2017-09-20T13:55:39.350Z,55.10
2017-09-20T13:58:06.261Z,54.50
2017-09-20T14:00:35.236Z,55.10
2017-09-20T14:03:04.101Z,56.30
2017-09-20T14:05:32.818Z,56.00
2017-09-20T14:08:02.417Z,56.80
2017-09-20T14:10:29.927Z,56.80
2017-09-20T14:12:58.694Z,58.10
2017-09-20T14:15:25.630Z,55.30
2017-09-20T14:17:52.447Z,55.30
2017-09-20T14:20:19.302Z,55.00
2017-09-20T14:22:46.915Z,55.70
2017-09-20T14:25:13.801Z,55.70
2017-09-20T14:27:40.687Z,56.70
2017-09-20T14:30:08.266Z,54.90
2017-09-20T14:32:35.871Z,55.80
2017-09-20T14:35:02.747Z,55.60
2017-09-20T14:37:29.718Z,56.20
2017-09-20T14:39:56.542Z,56.90
2017-09-20T14:42:25.305Z,56.50
2017-09-20T14:44:52.925Z,57.40
2017-09-20T14:47:20.541Z,57.40
2017-09-20T14:49:47.385Z,57.20
2017-09-20T14:52:14.233Z,56.30
2017-09-20T14:54:41.826Z,55.40
2017-09-20T14:57:09.726Z,55.40
2017-09-20T14:59:36.617Z,55.00
2017-09-20T15:02:03.474Z,55.00
2017-09-20T15:04:30.377Z,54.90
2017-09-20T15:06:57.968Z,55.70
2017-09-20T15:09:24.817Z,55.70
2017-09-20T15:11:52.389Z,56.90
2017-09-20T15:14:19.972Z,57.90
2017-09-20T15:16:47.537Z,58.30
2017-09-20T15:19:15.119Z,58.20
2017-09-20T15:21:42.703Z,58.60
2017-09-20T15:24:09.554Z,58.60
2017-09-20T15:26:36.403Z,59.60
2017-09-20T15:29:03.271Z,59.90
2017-09-20T15:31:30.143Z,60.20
2017-09-20T15:33:57.735Z,60.30
2017-09-20T15:36:25.336Z,59.90
2017-09-20T15:38:52.193Z,59.90
2017-09-20T15:41:19.024Z,60.70
2017-09-20T15:43:46.614Z,61.00
2017-09-20T15:46:14.209Z,59.70
2017-09-20T15:48:41.123Z,59.70
2017-09-20T15:51:08.752Z,61.70
2017-09-20T15:53:35.631Z,61.30
2017-09-20T15:56:02.498Z,61.40
2017-09-20T15:58:29.332Z,61.80
2017-09-20T16:00:56.167Z,61.40
2017-09-20T16:03:23.783Z,60.90
2017-09-20T16:05:50.603Z,60.90
2017-09-20T16:08:18.226Z,61.00
2017-09-20T16:10:45.121Z,61.50
2017-09-20T16:13:11.992Z,60.80
2017-09-20T16:15:38.908Z,61.40
2017-09-20T16:18:06.491Z,62.10
2017-09-20T16:20:33.336Z,61.90
2017-09-20T16:23:00.159Z,61.90
2017-09-20T16:25:27.012Z,62.60
2017-09-20T16:27:53.921Z,62.60
2017-09-20T16:30:20.778Z,62.60
2017-09-20T16:32:47.638Z,62.90
2017-09-20T16:35:14.504Z,62.80
2017-09-20T16:37:41.382Z,63.50
2017-09-20T16:40:08.264Z,63.50
2017-09-20T16:42:35.134Z,63.00
2017-09-20T16:45:02.010Z,63.60
2017-09-20T16:47:28.917Z,64.20
2017-09-20T16:49:56.616Z,64.30
2017-09-20T16:52:23.476Z,65.00
2017-09-20T16:54:51.036Z,65.30
2017-09-20T16:57:17.944Z,65.40
2017-09-20T16:59:44.807Z,65.40
2017-09-20T17:02:11.973Z,65.30
2017-09-20T17:04:38.845Z,65.90
2017-09-20T17:07:05.731Z,66.00
2017-09-20T17:09:33.530Z,66.80
2017-09-20T17:12:00.385Z,66.80
2017-09-20T17:14:27.289Z,67.30
2017-09-20T17:16:54.141Z,67.30
2017-09-20T17:19:21.011Z,67.60
2017-09-20T17:21:47.853Z,67.90
2017-09-20T17:24:14.718Z,68.70
2017-09-20T17:26:41.556Z,68.70
2017-09-20T17:29:08.453Z,69.90
2017-09-20T17:31:35.401Z,69.70
2017-09-20T17:34:02.324Z,69.70
2017-09-20T17:36:29.992Z,70.80
2017-09-20T17:38:56.833Z,70.10
2017-09-20T17:41:23.709Z,70.10
2017-09-20T17:43:50.585Z,69.40
2017-09-20T17:46:17.464Z,70.50
2017-09-20T17:48:45.157Z,72.30
2017-09-20T17:51:12.114Z,72.10
2017-09-20T17:53:39.740Z,73.40
2017-09-20T17:56:06.664Z,73.40
2017-09-20T17:58:33.563Z,74.50
2017-09-20T18:01:00.452Z,74.30
2017-09-20T18:03:27.325Z,74.30
2017-09-20T18:05:55.562Z,72.90
2017-09-20T18:08:22.470Z,72.90
2017-09-20T18:10:49.420Z,72.90
2017-09-20T18:13:16.290Z,74.80
2017-09-20T18:15:43.152Z,74.50
2017-09-20T18:18:10.011Z,76.00
2017-09-20T18:20:37.648Z,77.30
2017-09-20T18:23:04.551Z,78.20
2017-09-20T18:25:31.443Z,76.10
2017-09-20T18:27:59.094Z,75.00
2017-09-20T18:30:25.944Z,74.80
2017-09-20T18:32:52.784Z,75.60
2017-09-20T18:35:19.687Z,75.50
2017-09-20T18:37:46.566Z,74.80
2017-09-20T18:40:14.174Z,74.60
2017-09-20T18:42:41.042Z,74.60
2017-09-20T18:45:08.056Z,74.50
2017-09-20T18:47:34.901Z,75.60
2017-09-20T18:50:01.875Z,77.50
2017-09-20T18:52:28.850Z,78.40
2017-09-20T18:54:55.781Z,78.40
2017-09-20T18:57:22.771Z,78.00
2017-09-20T18:59:49.656Z,78.60
2017-09-20T19:02:17.344Z,77.70
2017-09-20T19:04:44.191Z,77.50
2017-09-20T19:07:12.183Z,76.80
2017-09-20T19:09:39.134Z,76.80
2017-09-20T19:12:06.131Z,76.80
2017-09-20T19:14:32.977Z,77.50
2017-09-20T19:17:00.532Z,77.10
2017-09-20T19:19:27.375Z,77.00
2017-09-20T19:21:54.265Z,76.80
2017-09-20T19:24:21.898Z,78.30
2017-09-20T19:26:48.823Z,78.20
2017-09-20T19:29:15.774Z,78.70
2017-09-20T19:31:43.504Z,78.50
2017-09-20T19:34:10.603Z,77.80
2017-09-20T19:36:37.533Z,77.10
2017-09-20T19:39:04.453Z,76.70
2017-09-20T19:41:32.071Z,79.60
2017-09-20T19:43:58.988Z,79.60
2017-09-20T19:46:26.710Z,81.00
2017-09-20T19:48:53.825Z,81.00
2017-09-20T19:51:20.756Z,81.30
2017-09-20T19:53:49.709Z,80.90
2017-09-20T19:56:17.365Z,80.40
2017-09-20T19:58:44.212Z,80.40
2017-09-20T20:01:11.178Z,79.70
2017-09-20T20:03:38.035Z,78.90
2017-09-20T20:06:04.882Z,78.20
2017-09-20T20:08:32.500Z,78.10
2017-09-20T20:10:59.373Z,78.10
2017-09-20T20:13:26.274Z,78.10
2017-09-20T20:15:53.156Z,77.70
2017-09-20T20:18:20.034Z,77.30
2017-09-20T20:20:46.888Z,77.70
2017-09-20T20:23:13.815Z,77.80
2017-09-20T20:25:40.696Z,79.10
2017-09-20T20:28:07.519Z,80.20
2017-09-20T20:30:35.150Z,80.60
2017-09-20T20:33:02.025Z,80.60
2017-09-20T20:35:28.852Z,81.80
2017-09-20T20:37:55.775Z,82.40
2017-09-20T20:40:23.436Z,81.90
2017-09-20T20:42:50.259Z,81.90
2017-09-20T20:45:17.060Z,81.50
2017-09-20T20:47:43.889Z,81.40
2017-09-20T20:50:10.765Z,81.10
2017-09-20T20:52:37.584Z,80.00
2017-09-20T20:55:04.457Z,79.40
2017-09-20T20:57:31.348Z,79.10
2017-09-20T20:59:58.211Z,78.70
2017-09-20T21:02:25.032Z,79.50
2017-09-20T21:04:51.854Z,80.60
2017-09-20T21:07:18.694Z,81.10
2017-09-20T21:09:45.549Z,80.90
2017-09-20T21:12:12.442Z,80.20
2017-09-20T21:14:39.296Z,80.70
2017-09-20T21:17:06.139Z,81.60
2017-09-20T21:19:33.004Z,82.30
2017-09-20T21:21:59.842Z,82.90
2017-09-20T21:24:26.695Z,83.40
2017-09-20T21:26:53.550Z,83.60
2017-09-20T21:29:20.504Z,83.30
2017-09-20T21:31:47.348Z,82.70
2017-09-20T21:34:14.970Z,82.60
2017-09-20T21:36:41.788Z,82.50
2017-09-20T21:39:09.383Z,82.00
2017-09-20T21:41:36.263Z,82.00
2017-09-20T21:44:03.138Z,82.20
2017-09-20T21:46:30.004Z,82.30
2017-09-20T21:48:56.866Z,81.40
2017-09-20T21:51:23.770Z,81.40
2017-09-20T21:53:51.429Z,81.00
2017-09-20T21:56:18.316Z,81.00
2017-09-20T21:58:45.936Z,81.80
2017-09-20T22:01:12.772Z,81.90
2017-09-20T22:03:39.651Z,82.10
2017-09-20T22:06:06.486Z,83.10
2017-09-20T22:08:34.119Z,82.30
2017-09-20T22:11:00.964Z,82.40
2017-09-20T22:13:28.597Z,83.40
2017-09-20T22:16:14.384Z,83.10
2017-09-20T22:19:00.158Z,82.00
2017-09-20T22:21:45.083Z,81.90
2017-09-20T22:24:30.120Z,82.20
2017-09-20T22:26:56.569Z,83.00
2017-09-20T22:29:23.439Z,82.80
2017-09-20T22:31:50.289Z,81.40
2017-09-20T22:34:17.191Z,81.40
2017-09-20T22:36:44.015Z,81.70
2017-09-20T22:39:10.850Z,80.90
2017-09-20T22:41:37.661Z,82.40
2017-09-20T22:44:05.340Z,82.70
2017-09-20T22:46:32.955Z,84.00
2017-09-20T22:48:59.795Z,84.60
2017-09-20T22:51:26.624Z,84.80
2017-09-20T22:53:53.463Z,84.30
2017-09-20T22:56:21.365Z,85.00
2017-09-20T22:58:48.242Z,83.00
2017-09-20T23:01:15.074Z,81.80
2017-09-20T23:03:42.851Z,81.30
2017-09-20T23:06:10.463Z,83.20
2017-09-20T23:08:38.105Z,85.10
2017-09-20T23:11:05.782Z,85.10
2017-09-20T23:13:32.631Z,85.40
2017-09-20T23:15:59.493Z,86.70
2017-09-20T23:18:26.379Z,86.80
2017-09-20T23:20:53.196Z,87.10
2017-09-20T23:23:20.103Z,87.90
2017-09-20T23:25:46.938Z,87.20
2017-09-20T23:28:13.866Z,86.40
2017-09-20T23:30:40.801Z,86.10
2017-09-20T23:33:08.648Z,86.50
2017-09-20T23:35:35.640Z,86.50
2017-09-20T23:38:02.889Z,86.20
2017-09-20T23:40:30.558Z,83.90
2017-09-20T23:42:57.389Z,83.80
2017-09-20T23:45:24.979Z,82.40
2017-09-20T23:47:52.560Z,81.80
2017-09-20T23:50:19.383Z,81.80
2017-09-20T23:52:46.297Z,81.40
2017-09-20T23:55:13.145Z,81.20
2017-09-20T23:57:40.011Z,81.70
